sensor_id;sensor_type;location;lat;lon;timestamp;P1;durP1;ratioP1;P2;durP2;ratioP2
61756;SDS011;57225;61.460;24.060;2023-02-20T00:01:34;27.65;;;10.13;;
61756;SDS011;57225;61.460;24.060;2023-02-20T00:04:19;23.63;;;9.02;;
61756;SDS011;57225;61.460;24.060;2023-02-20T00:07:03;23.27;;;9.05;;
61756;SDS011;57225;61.460;24.060;2023-02-20T00:09:47;21.83;;;8.77;;
61756;SDS011;57225;61.460;24.060;2023-02-20T00:12:32;24.23;;;9.32;;
61756;SDS011;57225;61.460;24.060;2023-02-20T00:15:17;25.13;;;9.85;;
61756;SDS011;57225;61.460;24.060;2023-02-20T00:18:02;20.90;;;8.20;;
61756;SDS011;57225;61.460;24.060;2023-02-20T00:20:47;27.90;;;9.80;;
61756;SDS011;57225;61.460;24.060;2023-02-20T00:23:32;21.90;;;9.02;;
61756;SDS011;57225;61.460;24.060;2023-02-20T00:26:17;29.98;;;9.65;;
61756;SDS011;57225;61.460;24.060;2023-02-20T00:29:01;23.05;;;8.93;;
61756;SDS011;57225;61.460;24.060;2023-02-20T00:31:50;23.73;;;9.13;;
61756;SDS011;57225;61.460;24.060;2023-02-20T00:34:36;22.13;;;9.00;;
61756;SDS011;57225;61.460;24.060;2023-02-20T00:37:20;21.38;;;8.77;;
61756;SDS011;57225;61.460;24.060;2023-02-20T00:40:06;23.48;;;8.93;;
61756;SDS011;57225;61.460;24.060;2023-02-20T00:42:50;20.58;;;8.45;;
61756;SDS011;57225;61.460;24.060;2023-02-20T00:45:35;21.90;;;8.80;;
61756;SDS011;57225;61.460;24.060;2023-02-20T00:48:19;21.33;;;8.90;;
61756;SDS011;57225;61.460;24.060;2023-02-20T00:51:05;26.67;;;8.98;;
61756;SDS011;57225;61.460;24.060;2023-02-20T00:53:49;23.50;;;9.40;;
61756;SDS011;57225;61.460;24.060;2023-02-20T00:56:34;22.30;;;9.10;;
61756;SDS011;57225;61.460;24.060;2023-02-20T00:59:18;25.30;;;9.27;;
61756;SDS011;57225;61.460;24.060;2023-02-20T01:02:03;27.05;;;9.10;;
61756;SDS011;57225;61.460;24.060;2023-02-20T01:04:47;26.58;;;9.70;;
61756;SDS011;57225;61.460;24.060;2023-02-20T01:07:32;29.75;;;9.80;;
61756;SDS011;57225;61.460;24.060;2023-02-20T01:10:17;25.88;;;9.98;;
61756;SDS011;57225;61.460;24.060;2023-02-20T01:13:01;30.33;;;11.07;;
61756;SDS011;57225;61.460;24.060;2023-02-20T01:15:45;24.40;;;9.50;;
61756;SDS011;57225;61.460;24.060;2023-02-20T01:18:30;22.55;;;9.35;;
61756;SDS011;57225;61.460;24.060;2023-02-20T01:21:14;25.50;;;9.00;;
61756;SDS011;57225;61.460;24.060;2023-02-20T01:23:59;27.75;;;10.18;;
61756;SDS011;57225;61.460;24.060;2023-02-20T01:26:44;26.85;;;9.63;;
61756;SDS011;57225;61.460;24.060;2023-02-20T01:29:29;21.33;;;8.73;;
61756;SDS011;57225;61.460;24.060;2023-02-20T01:32:14;22.98;;;9.02;;
61756;SDS011;57225;61.460;24.060;2023-02-20T01:34:58;26.52;;;10.43;;
61756;SDS011;57225;61.460;24.060;2023-02-20T01:37:43;25.20;;;9.27;;
61756;SDS011;57225;61.460;24.060;2023-02-20T01:40:27;28.58;;;10.18;;
61756;SDS011;57225;61.460;24.060;2023-02-20T01:43:11;23.23;;;9.10;;
61756;SDS011;57225;61.460;24.060;2023-02-20T01:46:23;22.55;;;8.88;;
61756;SDS011;57225;61.460;24.060;2023-02-20T01:49:10;21.40;;;8.50;;
61756;SDS011;57225;61.460;24.060;2023-02-20T01:52:40;24.00;;;9.10;;
61756;SDS011;57225;61.460;24.060;2023-02-20T01:55:23;23.55;;;8.88;;
61756;SDS011;57225;61.460;24.060;2023-02-20T01:58:13;23.85;;;9.82;;
61756;SDS011;57225;61.460;24.060;2023-02-20T02:01:00;27.00;;;9.68;;
61756;SDS011;57225;61.460;24.060;2023-02-20T02:03:47;24.13;;;9.73;;
61756;SDS011;57225;61.460;24.060;2023-02-20T02:06:37;24.30;;;9.23;;
61756;SDS011;57225;61.460;24.060;2023-02-20T02:09:27;24.85;;;9.18;;
61756;SDS011;57225;61.460;24.060;2023-02-20T02:12:21;26.90;;;9.73;;
61756;SDS011;57225;61.460;24.060;2023-02-20T02:15:13;26.77;;;10.35;;
61756;SDS011;57225;61.460;24.060;2023-02-20T02:18:06;33.45;;;11.63;;
61756;SDS011;57225;61.460;24.060;2023-02-20T02:28:07;30.02;;;10.90;;
61756;SDS011;57225;61.460;24.060;2023-02-20T02:37:13;31.40;;;11.85;;
61756;SDS011;57225;61.460;24.060;2023-02-20T02:43:08;25.48;;;10.40;;
61756;SDS011;57225;61.460;24.060;2023-02-20T02:46:13;30.53;;;11.23;;
61756;SDS011;57225;61.460;24.060;2023-02-20T02:52:17;31.02;;;11.48;;
61756;SDS011;57225;61.460;24.060;2023-02-20T02:55:25;31.52;;;11.55;;
61756;SDS011;57225;61.460;24.060;2023-02-20T02:58:14;31.63;;;11.68;;
61756;SDS011;57225;61.460;24.060;2023-02-20T03:01:00;35.65;;;13.05;;
61756;SDS011;57225;61.460;24.060;2023-02-20T03:03:45;44.53;;;14.32;;
61756;SDS011;57225;61.460;24.060;2023-02-20T03:06:36;41.80;;;15.35;;
61756;SDS011;57225;61.460;24.060;2023-02-20T03:09:27;45.55;;;14.65;;
61756;SDS011;57225;61.460;24.060;2023-02-20T03:12:15;45.20;;;14.65;;
61756;SDS011;57225;61.460;24.060;2023-02-20T03:15:04;44.53;;;15.00;;
61756;SDS011;57225;61.460;24.060;2023-02-20T03:21:16;46.53;;;15.40;;
61756;SDS011;57225;61.460;24.060;2023-02-20T03:24:04;42.03;;;14.63;;
61756;SDS011;57225;61.460;24.060;2023-02-20T03:26:48;44.17;;;14.65;;
61756;SDS011;57225;61.460;24.060;2023-02-20T03:29:35;45.92;;;15.00;;
61756;SDS011;57225;61.460;24.060;2023-02-20T03:32:21;42.88;;;15.15;;
61756;SDS011;57225;61.460;24.060;2023-02-20T03:35:28;39.15;;;14.50;;
61756;SDS011;57225;61.460;24.060;2023-02-20T03:38:36;39.90;;;14.00;;
61756;SDS011;57225;61.460;24.060;2023-02-20T03:41:42;39.45;;;13.68;;
61756;SDS011;57225;61.460;24.060;2023-02-20T03:44:46;39.95;;;14.00;;
61756;SDS011;57225;61.460;24.060;2023-02-20T03:47:31;37.25;;;13.82;;
61756;SDS011;57225;61.460;24.060;2023-02-20T03:50:19;49.05;;;14.25;;
61756;SDS011;57225;61.460;24.060;2023-02-20T03:53:23;46.33;;;12.93;;
61756;SDS011;57225;61.460;24.060;2023-02-20T03:56:09;39.55;;;12.25;;
61756;SDS011;57225;61.460;24.060;2023-02-20T03:59:05;42.17;;;13.23;;
61756;SDS011;57225;61.460;24.060;2023-02-20T04:02:07;53.13;;;11.38;;
61756;SDS011;57225;61.460;24.060;2023-02-20T04:04:58;34.83;;;11.80;;
61756;SDS011;57225;61.460;24.060;2023-02-20T04:07:49;39.58;;;12.82;;
61756;SDS011;57225;61.460;24.060;2023-02-20T04:10:46;37.63;;;12.05;;
61756;SDS011;57225;61.460;24.060;2023-02-20T04:13:37;45.42;;;13.23;;
61756;SDS011;57225;61.460;24.060;2023-02-20T04:16:22;35.83;;;11.52;;
61756;SDS011;57225;61.460;24.060;2023-02-20T04:19:07;42.22;;;12.70;;
61756;SDS011;57225;61.460;24.060;2023-02-20T04:21:53;38.88;;;13.02;;
61756;SDS011;57225;61.460;24.060;2023-02-20T04:24:42;39.08;;;12.55;;
61756;SDS011;57225;61.460;24.060;2023-02-20T04:27:30;37.22;;;11.95;;
61756;SDS011;57225;61.460;24.060;2023-02-20T04:30:15;45.33;;;12.70;;
61756;SDS011;57225;61.460;24.060;2023-02-20T04:33:00;39.70;;;13.70;;
61756;SDS011;57225;61.460;24.060;2023-02-20T04:35:44;39.83;;;12.93;;
61756;SDS011;57225;61.460;24.060;2023-02-20T04:38:29;36.90;;;12.77;;
61756;SDS011;57225;61.460;24.060;2023-02-20T04:41:13;43.58;;;13.05;;
61756;SDS011;57225;61.460;24.060;2023-02-20T04:43:58;37.60;;;11.90;;
61756;SDS011;57225;61.460;24.060;2023-02-20T04:47:03;34.92;;;11.50;;
61756;SDS011;57225;61.460;24.060;2023-02-20T04:49:55;36.53;;;12.25;;
61756;SDS011;57225;61.460;24.060;2023-02-20T04:52:39;35.35;;;12.10;;
61756;SDS011;57225;61.460;24.060;2023-02-20T04:55:24;38.63;;;12.32;;
61756;SDS011;57225;61.460;24.060;2023-02-20T04:58:10;36.38;;;11.40;;
61756;SDS011;57225;61.460;24.060;2023-02-20T05:00:54;32.40;;;11.32;;
61756;SDS011;57225;61.460;24.060;2023-02-20T05:03:38;83.22;;;11.85;;
61756;SDS011;57225;61.460;24.060;2023-02-20T05:06:23;34.42;;;11.57;;
61756;SDS011;57225;61.460;24.060;2023-02-20T05:09:07;31.00;;;11.45;;
61756;SDS011;57225;61.460;24.060;2023-02-20T05:11:53;39.90;;;11.75;;
61756;SDS011;57225;61.460;24.060;2023-02-20T05:14:38;31.92;;;11.00;;
61756;SDS011;57225;61.460;24.060;2023-02-20T05:17:22;40.65;;;11.23;;
61756;SDS011;57225;61.460;24.060;2023-02-20T05:20:07;35.13;;;11.20;;
61756;SDS011;57225;61.460;24.060;2023-02-20T05:22:52;28.45;;;10.18;;
61756;SDS011;57225;61.460;24.060;2023-02-20T05:25:36;41.28;;;10.93;;
61756;SDS011;57225;61.460;24.060;2023-02-20T05:28:21;38.10;;;11.30;;
61756;SDS011;57225;61.460;24.060;2023-02-20T05:31:05;29.85;;;10.07;;
61756;SDS011;57225;61.460;24.060;2023-02-20T05:33:50;31.20;;;10.88;;
61756;SDS011;57225;61.460;24.060;2023-02-20T05:36:34;29.00;;;10.75;;
61756;SDS011;57225;61.460;24.060;2023-02-20T05:39:20;41.05;;;12.85;;
61756;SDS011;57225;61.460;24.060;2023-02-20T05:42:04;35.40;;;11.52;;
61756;SDS011;57225;61.460;24.060;2023-02-20T05:44:49;28.60;;;9.88;;
61756;SDS011;57225;61.460;24.060;2023-02-20T05:47:35;38.92;;;11.73;;
61756;SDS011;57225;61.460;24.060;2023-02-20T05:50:21;28.90;;;10.80;;
61756;SDS011;57225;61.460;24.060;2023-02-20T05:53:05;28.52;;;10.73;;
61756;SDS011;57225;61.460;24.060;2023-02-20T05:55:50;30.58;;;10.68;;
61756;SDS011;57225;61.460;24.060;2023-02-20T05:58:35;27.60;;;10.98;;
61756;SDS011;57225;61.460;24.060;2023-02-20T06:01:20;38.40;;;12.43;;
61756;SDS011;57225;61.460;24.060;2023-02-20T06:04:06;37.28;;;13.10;;
61756;SDS011;57225;61.460;24.060;2023-02-20T06:06:52;30.60;;;11.30;;
61756;SDS011;57225;61.460;24.060;2023-02-20T06:09:40;27.73;;;10.52;;
61756;SDS011;57225;61.460;24.060;2023-02-20T06:12:25;31.83;;;10.65;;
61756;SDS011;57225;61.460;24.060;2023-02-20T06:15:09;35.08;;;11.70;;
61756;SDS011;57225;61.460;24.060;2023-02-20T06:17:54;34.00;;;11.05;;
61756;SDS011;57225;61.460;24.060;2023-02-20T06:20:38;28.70;;;10.75;;
61756;SDS011;57225;61.460;24.060;2023-02-20T06:23:23;30.48;;;11.15;;
61756;SDS011;57225;61.460;24.060;2023-02-20T06:26:07;29.40;;;11.10;;
61756;SDS011;57225;61.460;24.060;2023-02-20T06:28:52;34.30;;;13.18;;
61756;SDS011;57225;61.460;24.060;2023-02-20T06:31:37;33.55;;;12.57;;
61756;SDS011;57225;61.460;24.060;2023-02-20T06:34:21;39.35;;;12.10;;
61756;SDS011;57225;61.460;24.060;2023-02-20T06:55:46;32.88;;;10.80;;
61756;SDS011;57225;61.460;24.060;2023-02-20T06:58:31;24.95;;;9.95;;
61756;SDS011;57225;61.460;24.060;2023-02-20T07:01:16;27.75;;;11.60;;
61756;SDS011;57225;61.460;24.060;2023-02-20T07:04:01;26.92;;;10.50;;
61756;SDS011;57225;61.460;24.060;2023-02-20T07:06:45;24.42;;;10.38;;
61756;SDS011;57225;61.460;24.060;2023-02-20T07:09:30;28.80;;;10.30;;
61756;SDS011;57225;61.460;24.060;2023-02-20T07:12:14;28.40;;;10.95;;
61756;SDS011;57225;61.460;24.060;2023-02-20T07:14:59;38.38;;;11.55;;
61756;SDS011;57225;61.460;24.060;2023-02-20T07:17:43;32.88;;;11.50;;
61756;SDS011;57225;61.460;24.060;2023-02-20T07:20:28;38.03;;;11.98;;
61756;SDS011;57225;61.460;24.060;2023-02-20T07:23:12;36.17;;;12.00;;
61756;SDS011;57225;61.460;24.060;2023-02-20T07:25:56;31.48;;;11.48;;
61756;SDS011;57225;61.460;24.060;2023-02-20T07:28:41;30.98;;;11.50;;
61756;SDS011;57225;61.460;24.060;2023-02-20T07:31:26;36.25;;;11.98;;
61756;SDS011;57225;61.460;24.060;2023-02-20T07:34:11;30.45;;;11.35;;
61756;SDS011;57225;61.460;24.060;2023-02-20T07:36:55;35.60;;;12.32;;
61756;SDS011;57225;61.460;24.060;2023-02-20T07:39:39;31.35;;;12.40;;
61756;SDS011;57225;61.460;24.060;2023-02-20T07:42:24;36.17;;;13.60;;
61756;SDS011;57225;61.460;24.060;2023-02-20T07:45:09;35.85;;;11.82;;
61756;SDS011;57225;61.460;24.060;2023-02-20T07:47:54;30.73;;;12.07;;
61756;SDS011;57225;61.460;24.060;2023-02-20T07:50:38;32.15;;;11.30;;
61756;SDS011;57225;61.460;24.060;2023-02-20T07:53:23;34.83;;;11.40;;
61756;SDS011;57225;61.460;24.060;2023-02-20T07:56:07;35.33;;;11.10;;
61756;SDS011;57225;61.460;24.060;2023-02-20T07:58:52;33.13;;;11.55;;
61756;SDS011;57225;61.460;24.060;2023-02-20T08:01:36;35.20;;;11.75;;
61756;SDS011;57225;61.460;24.060;2023-02-20T08:04:21;26.83;;;10.63;;
61756;SDS011;57225;61.460;24.060;2023-02-20T08:07:05;26.17;;;10.55;;
61756;SDS011;57225;61.460;24.060;2023-02-20T08:09:50;27.27;;;9.82;;
61756;SDS011;57225;61.460;24.060;2023-02-20T08:12:34;25.88;;;10.43;;
61756;SDS011;57225;61.460;24.060;2023-02-20T08:15:19;23.42;;;10.00;;
61756;SDS011;57225;61.460;24.060;2023-02-20T08:18:04;28.95;;;10.05;;
61756;SDS011;57225;61.460;24.060;2023-02-20T08:20:48;29.75;;;10.60;;
61756;SDS011;57225;61.460;24.060;2023-02-20T08:23:34;26.92;;;10.07;;
61756;SDS011;57225;61.460;24.060;2023-02-20T08:26:19;24.00;;;9.60;;
61756;SDS011;57225;61.460;24.060;2023-02-20T08:29:04;25.15;;;10.10;;
61756;SDS011;57225;61.460;24.060;2023-02-20T08:31:48;28.60;;;10.18;;
61756;SDS011;57225;61.460;24.060;2023-02-20T08:34:32;20.73;;;8.70;;
61756;SDS011;57225;61.460;24.060;2023-02-20T08:37:17;21.52;;;8.57;;
61756;SDS011;57225;61.460;24.060;2023-02-20T08:40:01;24.10;;;9.48;;
61756;SDS011;57225;61.460;24.060;2023-02-20T08:42:49;23.13;;;9.00;;
61756;SDS011;57225;61.460;24.060;2023-02-20T08:45:33;23.98;;;10.52;;
61756;SDS011;57225;61.460;24.060;2023-02-20T08:48:18;25.98;;;9.60;;
61756;SDS011;57225;61.460;24.060;2023-02-20T08:51:02;24.20;;;9.80;;
61756;SDS011;57225;61.460;24.060;2023-02-20T08:53:48;26.75;;;10.00;;
61756;SDS011;57225;61.460;24.060;2023-02-20T08:56:32;20.77;;;8.98;;
61756;SDS011;57225;61.460;24.060;2023-02-20T08:59:17;22.65;;;9.15;;
61756;SDS011;57225;61.460;24.060;2023-02-20T09:02:01;24.75;;;10.00;;
61756;SDS011;57225;61.460;24.060;2023-02-20T09:04:46;23.55;;;9.52;;
61756;SDS011;57225;61.460;24.060;2023-02-20T09:07:31;30.70;;;10.32;;
61756;SDS011;57225;61.460;24.060;2023-02-20T09:10:19;28.85;;;10.60;;
61756;SDS011;57225;61.460;24.060;2023-02-20T09:13:04;25.05;;;9.80;;
61756;SDS011;57225;61.460;24.060;2023-02-20T09:15:48;21.63;;;9.13;;
61756;SDS011;57225;61.460;24.060;2023-02-20T09:18:32;23.42;;;9.93;;
61756;SDS011;57225;61.460;24.060;2023-02-20T09:21:17;21.98;;;10.13;;
61756;SDS011;57225;61.460;24.060;2023-02-20T09:24:04;19.63;;;8.48;;
61756;SDS011;57225;61.460;24.060;2023-02-20T09:26:48;19.52;;;8.63;;
61756;SDS011;57225;61.460;24.060;2023-02-20T09:29:33;19.67;;;8.05;;
61756;SDS011;57225;61.460;24.060;2023-02-20T09:32:21;15.85;;;7.15;;
61756;SDS011;57225;61.460;24.060;2023-02-20T09:35:06;18.02;;;7.20;;
61756;SDS011;57225;61.460;24.060;2023-02-20T09:37:51;16.73;;;7.07;;
61756;SDS011;57225;61.460;24.060;2023-02-20T09:40:36;19.73;;;7.30;;
61756;SDS011;57225;61.460;24.060;2023-02-20T09:43:24;12.80;;;6.38;;
61756;SDS011;57225;61.460;24.060;2023-02-20T09:46:18;16.70;;;7.75;;
61756;SDS011;57225;61.460;24.060;2023-02-20T09:49:15;19.33;;;6.95;;
61756;SDS011;57225;61.460;24.060;2023-02-20T09:52:04;14.05;;;7.00;;
61756;SDS011;57225;61.460;24.060;2023-02-20T09:54:57;12.82;;;6.30;;
61756;SDS011;57225;61.460;24.060;2023-02-20T09:57:50;12.73;;;6.63;;
61756;SDS011;57225;61.460;24.060;2023-02-20T10:00:36;14.80;;;6.78;;
61756;SDS011;57225;61.460;24.060;2023-02-20T10:03:33;14.38;;;6.93;;
61756;SDS011;57225;61.460;24.060;2023-02-20T10:06:24;17.40;;;6.97;;
61756;SDS011;57225;61.460;24.060;2023-02-20T10:12:06;14.80;;;6.50;;
61756;SDS011;57225;61.460;24.060;2023-02-20T10:18:01;14.43;;;6.80;;
61756;SDS011;57225;61.460;24.060;2023-02-20T10:21:02;14.70;;;7.28;;
61756;SDS011;57225;61.460;24.060;2023-02-20T10:24:01;16.90;;;7.97;;
61756;SDS011;57225;61.460;24.060;2023-02-20T10:27:20;15.70;;;6.47;;
61756;SDS011;57225;61.460;24.060;2023-02-20T10:30:37;22.92;;;7.60;;
61756;SDS011;57225;61.460;24.060;2023-02-20T10:33:27;15.88;;;7.13;;
61756;SDS011;57225;61.460;24.060;2023-02-20T10:36:30;14.93;;;6.97;;
61756;SDS011;57225;61.460;24.060;2023-02-20T10:39:18;16.10;;;6.97;;
61756;SDS011;57225;61.460;24.060;2023-02-20T10:45:08;14.82;;;7.03;;
61756;SDS011;57225;61.460;24.060;2023-02-20T10:51:04;13.85;;;6.32;;
61756;SDS011;57225;61.460;24.060;2023-02-20T10:54:13;19.27;;;7.05;;
61756;SDS011;57225;61.460;24.060;2023-02-20T10:57:13;19.88;;;7.28;;
61756;SDS011;57225;61.460;24.060;2023-02-20T11:00:02;17.33;;;7.90;;
61756;SDS011;57225;61.460;24.060;2023-02-20T11:02:58;16.90;;;7.47;;
61756;SDS011;57225;61.460;24.060;2023-02-20T11:05:50;17.42;;;7.18;;
61756;SDS011;57225;61.460;24.060;2023-02-20T11:08:38;14.65;;;6.82;;
61756;SDS011;57225;61.460;24.060;2023-02-20T11:11:30;17.10;;;7.60;;
61756;SDS011;57225;61.460;24.060;2023-02-20T11:14:20;16.30;;;7.32;;
61756;SDS011;57225;61.460;24.060;2023-02-20T11:17:31;18.63;;;8.68;;
61756;SDS011;57225;61.460;24.060;2023-02-20T11:20:39;15.73;;;7.63;;
61756;SDS011;57225;61.460;24.060;2023-02-20T11:23:37;19.08;;;7.65;;
61756;SDS011;57225;61.460;24.060;2023-02-20T11:26:31;19.02;;;8.32;;
61756;SDS011;57225;61.460;24.060;2023-02-20T11:29:17;17.48;;;8.43;;
61756;SDS011;57225;61.460;24.060;2023-02-20T11:32:21;16.23;;;7.97;;
61756;SDS011;57225;61.460;24.060;2023-02-20T11:35:14;17.77;;;8.13;;
61756;SDS011;57225;61.460;24.060;2023-02-20T11:38:16;19.15;;;7.78;;
61756;SDS011;57225;61.460;24.060;2023-02-20T11:41:18;18.67;;;7.45;;
61756;SDS011;57225;61.460;24.060;2023-02-20T11:47:31;19.45;;;8.27;;
61756;SDS011;57225;61.460;24.060;2023-02-20T11:50:14;20.85;;;7.97;;
61756;SDS011;57225;61.460;24.060;2023-02-20T11:53:02;17.10;;;8.25;;
61756;SDS011;57225;61.460;24.060;2023-02-20T11:55:48;15.10;;;7.35;;
61756;SDS011;57225;61.460;24.060;2023-02-20T11:58:48;16.45;;;7.30;;
61756;SDS011;57225;61.460;24.060;2023-02-20T12:01:34;17.45;;;8.05;;
61756;SDS011;57225;61.460;24.060;2023-02-20T12:04:22;16.58;;;7.45;;
61756;SDS011;57225;61.460;24.060;2023-02-20T12:07:27;16.67;;;8.38;;
61756;SDS011;57225;61.460;24.060;2023-02-20T12:13:10;17.25;;;7.43;;
61756;SDS011;57225;61.460;24.060;2023-02-20T12:19:35;20.67;;;8.35;;
61756;SDS011;57225;61.460;24.060;2023-02-20T12:22:42;19.73;;;8.13;;
61756;SDS011;57225;61.460;24.060;2023-02-20T12:25:36;16.80;;;8.02;;
61756;SDS011;57225;61.460;24.060;2023-02-20T12:29:03;15.82;;;7.60;;
61756;SDS011;57225;61.460;24.060;2023-02-20T12:32:14;21.33;;;9.13;;
61756;SDS011;57225;61.460;24.060;2023-02-20T12:35:27;17.60;;;8.32;;
61756;SDS011;57225;61.460;24.060;2023-02-20T12:38:20;19.67;;;8.68;;
61756;SDS011;57225;61.460;24.060;2023-02-20T12:41:23;18.85;;;8.80;;
61756;SDS011;57225;61.460;24.060;2023-02-20T12:44:33;17.40;;;8.40;;
61756;SDS011;57225;61.460;24.060;2023-02-20T12:53:23;20.80;;;8.65;;
61756;SDS011;57225;61.460;24.060;2023-02-20T12:59:47;19.67;;;9.07;;
61756;SDS011;57225;61.460;24.060;2023-02-20T13:02:40;17.85;;;8.35;;
61756;SDS011;57225;61.460;24.060;2023-02-20T13:05:32;24.13;;;8.10;;
61756;SDS011;57225;61.460;24.060;2023-02-20T13:11:15;17.35;;;8.00;;
61756;SDS011;57225;61.460;24.060;2023-02-20T13:14:08;19.88;;;8.70;;
61756;SDS011;57225;61.460;24.060;2023-02-20T13:20:30;20.38;;;8.30;;
61756;SDS011;57225;61.460;24.060;2023-02-20T13:29:19;18.98;;;8.68;;
61756;SDS011;57225;61.460;24.060;2023-02-20T13:36:02;20.50;;;8.30;;
61756;SDS011;57225;61.460;24.060;2023-02-20T13:38:24;16.45;;;7.90;;
61756;SDS011;57225;61.460;24.060;2023-02-20T13:41:10;19.55;;;8.80;;
61756;SDS011;57225;61.460;24.060;2023-02-20T13:43:55;20.05;;;9.20;;
61756;SDS011;57225;61.460;24.060;2023-02-20T13:49:56;19.80;;;8.70;;
61756;SDS011;57225;61.460;24.060;2023-02-20T13:52:42;20.63;;;9.48;;
61756;SDS011;57225;61.460;24.060;2023-02-20T13:55:28;21.48;;;9.18;;
61756;SDS011;57225;61.460;24.060;2023-02-20T13:58:14;17.75;;;8.90;;
61756;SDS011;57225;61.460;24.060;2023-02-20T14:00:59;19.70;;;9.25;;
61756;SDS011;57225;61.460;24.060;2023-02-20T14:03:44;18.27;;;8.55;;
61756;SDS011;57225;61.460;24.060;2023-02-20T14:06:28;21.90;;;9.00;;
61756;SDS011;57225;61.460;24.060;2023-02-20T14:09:15;17.45;;;8.50;;
61756;SDS011;57225;61.460;24.060;2023-02-20T14:14:55;24.00;;;9.43;;
61756;SDS011;57225;61.460;24.060;2023-02-20T14:17:40;20.55;;;9.23;;
61756;SDS011;57225;61.460;24.060;2023-02-20T14:20:33;23.05;;;9.70;;
61756;SDS011;57225;61.460;24.060;2023-02-20T14:23:21;22.60;;;10.40;;
61756;SDS011;57225;61.460;24.060;2023-02-20T14:26:22;23.80;;;10.40;;
61756;SDS011;57225;61.460;24.060;2023-02-20T14:29:24;24.25;;;10.55;;
61756;SDS011;57225;61.460;24.060;2023-02-20T14:32:10;22.98;;;10.40;;
61756;SDS011;57225;61.460;24.060;2023-02-20T14:41:09;19.95;;;9.07;;
61756;SDS011;57225;61.460;24.060;2023-02-20T14:44:02;22.38;;;9.32;;
61756;SDS011;57225;61.460;24.060;2023-02-20T14:47:05;17.98;;;8.32;;
61756;SDS011;57225;61.460;24.060;2023-02-20T14:49:52;18.13;;;8.70;;
61756;SDS011;57225;61.460;24.060;2023-02-20T14:52:36;18.90;;;8.77;;
61756;SDS011;57225;61.460;24.060;2023-02-20T14:55:21;17.55;;;8.27;;
61756;SDS011;57225;61.460;24.060;2023-02-20T14:58:15;24.65;;;9.48;;
61756;SDS011;57225;61.460;24.060;2023-02-20T15:01:02;18.88;;;8.95;;
61756;SDS011;57225;61.460;24.060;2023-02-20T15:04:04;21.45;;;9.55;;
61756;SDS011;57225;61.460;24.060;2023-02-20T15:07:00;18.45;;;8.50;;
61756;SDS011;57225;61.460;24.060;2023-02-20T15:09:48;21.70;;;9.15;;
61756;SDS011;57225;61.460;24.060;2023-02-20T15:15:20;18.92;;;8.10;;
61756;SDS011;57225;61.460;24.060;2023-02-20T15:18:09;16.55;;;8.30;;
61756;SDS011;57225;61.460;24.060;2023-02-20T15:20:57;19.92;;;8.23;;
61756;SDS011;57225;61.460;24.060;2023-02-20T15:23:43;18.20;;;8.60;;
61756;SDS011;57225;61.460;24.060;2023-02-20T15:26:29;17.92;;;8.32;;
61756;SDS011;57225;61.460;24.060;2023-02-20T15:29:23;16.80;;;7.68;;
61756;SDS011;57225;61.460;24.060;2023-02-20T15:32:22;18.40;;;7.45;;
61756;SDS011;57225;61.460;24.060;2023-02-20T15:38:00;17.20;;;7.28;;
61756;SDS011;57225;61.460;24.060;2023-02-20T15:40:48;18.77;;;8.07;;
61756;SDS011;57225;61.460;24.060;2023-02-20T15:43:32;16.17;;;8.02;;
61756;SDS011;57225;61.460;24.060;2023-02-20T15:46:17;15.52;;;8.15;;
61756;SDS011;57225;61.460;24.060;2023-02-20T15:49:03;18.20;;;8.20;;
61756;SDS011;57225;61.460;24.060;2023-02-20T15:51:47;19.88;;;7.93;;
61756;SDS011;57225;61.460;24.060;2023-02-20T15:54:32;17.02;;;8.35;;
61756;SDS011;57225;61.460;24.060;2023-02-20T15:57:17;20.55;;;9.00;;
61756;SDS011;57225;61.460;24.060;2023-02-20T16:00:02;19.45;;;8.30;;
61756;SDS011;57225;61.460;24.060;2023-02-20T16:02:47;16.92;;;8.00;;
61756;SDS011;57225;61.460;24.060;2023-02-20T16:05:31;17.08;;;7.68;;
61756;SDS011;57225;61.460;24.060;2023-02-20T16:08:16;16.83;;;7.85;;
61756;SDS011;57225;61.460;24.060;2023-02-20T16:11:00;17.70;;;8.07;;
61756;SDS011;57225;61.460;24.060;2023-02-20T16:13:45;17.77;;;7.75;;
61756;SDS011;57225;61.460;24.060;2023-02-20T16:16:34;17.90;;;7.65;;
61756;SDS011;57225;61.460;24.060;2023-02-20T16:19:24;20.23;;;8.77;;
61756;SDS011;57225;61.460;24.060;2023-02-20T16:22:09;14.40;;;7.47;;
61756;SDS011;57225;61.460;24.060;2023-02-20T16:24:54;17.58;;;7.53;;
61756;SDS011;57225;61.460;24.060;2023-02-20T16:27:39;25.80;;;8.85;;
61756;SDS011;57225;61.460;24.060;2023-02-20T16:33:21;16.88;;;7.40;;
61756;SDS011;57225;61.460;24.060;2023-02-20T16:36:07;17.20;;;7.80;;
61756;SDS011;57225;61.460;24.060;2023-02-20T16:38:51;15.65;;;7.45;;
61756;SDS011;57225;61.460;24.060;2023-02-20T16:41:36;16.75;;;7.93;;
61756;SDS011;57225;61.460;24.060;2023-02-20T16:44:39;17.42;;;7.60;;
61756;SDS011;57225;61.460;24.060;2023-02-20T16:47:27;18.20;;;8.27;;
61756;SDS011;57225;61.460;24.060;2023-02-20T16:50:14;16.20;;;7.28;;
61756;SDS011;57225;61.460;24.060;2023-02-20T16:53:03;21.98;;;8.40;;
61756;SDS011;57225;61.460;24.060;2023-02-20T16:55:49;17.67;;;7.68;;
61756;SDS011;57225;61.460;24.060;2023-02-20T16:58:34;20.13;;;7.82;;
61756;SDS011;57225;61.460;24.060;2023-02-20T17:01:19;18.30;;;7.90;;
61756;SDS011;57225;61.460;24.060;2023-02-20T17:04:05;17.45;;;8.02;;
61756;SDS011;57225;61.460;24.060;2023-02-20T17:06:52;17.75;;;7.93;;
61756;SDS011;57225;61.460;24.060;2023-02-20T17:09:37;15.07;;;7.65;;
61756;SDS011;57225;61.460;24.060;2023-02-20T17:12:22;18.02;;;8.60;;
61756;SDS011;57225;61.460;24.060;2023-02-20T17:15:07;16.63;;;8.15;;
61756;SDS011;57225;61.460;24.060;2023-02-20T17:17:53;18.02;;;7.82;;
61756;SDS011;57225;61.460;24.060;2023-02-20T17:20:37;17.23;;;7.47;;
61756;SDS011;57225;61.460;24.060;2023-02-20T17:23:21;15.48;;;7.53;;
61756;SDS011;57225;61.460;24.060;2023-02-20T17:26:09;19.02;;;8.18;;
61756;SDS011;57225;61.460;24.060;2023-02-20T17:28:53;16.98;;;8.07;;
61756;SDS011;57225;61.460;24.060;2023-02-20T17:31:38;14.18;;;7.18;;
61756;SDS011;57225;61.460;24.060;2023-02-20T17:34:25;16.40;;;7.47;;
61756;SDS011;57225;61.460;24.060;2023-02-20T17:37:10;15.52;;;7.43;;
61756;SDS011;57225;61.460;24.060;2023-02-20T17:39:57;17.67;;;7.40;;
61756;SDS011;57225;61.460;24.060;2023-02-20T17:42:45;15.35;;;7.00;;
61756;SDS011;57225;61.460;24.060;2023-02-20T17:45:30;13.45;;;6.85;;
61756;SDS011;57225;61.460;24.060;2023-02-20T17:48:14;14.55;;;6.93;;
61756;SDS011;57225;61.460;24.060;2023-02-20T17:50:58;16.80;;;7.20;;
61756;SDS011;57225;61.460;24.060;2023-02-20T17:53:43;18.90;;;7.68;;
61756;SDS011;57225;61.460;24.060;2023-02-20T17:56:28;18.83;;;8.40;;
61756;SDS011;57225;61.460;24.060;2023-02-20T17:59:12;14.93;;;7.57;;
61756;SDS011;57225;61.460;24.060;2023-02-20T18:01:56;18.33;;;8.45;;
61756;SDS011;57225;61.460;24.060;2023-02-20T18:04:41;19.23;;;8.63;;
61756;SDS011;57225;61.460;24.060;2023-02-20T18:07:26;18.10;;;8.38;;
61756;SDS011;57225;61.460;24.060;2023-02-20T18:10:10;17.98;;;8.48;;